EST,Max TemperatureF,Mean TemperatureF,Min TemperatureF,Max Dew PointF,MeanDew PointF,Min DewpointF,Max Humidity, Mean Humidity, Min Humidity, Max Sea Level PressureIn, Mean Sea Level PressureIn, Min Sea Level PressureIn, Max VisibilityMiles, Mean VisibilityMiles, Min VisibilityMiles, Max Wind SpeedMPH, Mean Wind SpeedMPH, Max Gust SpeedMPH,PrecipitationIn, CloudCover, Events, WindDirDegrees
2013-1-1,28,26,23,20,16,14,78,69,64,30.15,30.11,30.05,10,9,3,12,5,17,0.00,8,Snow,349
2013-1-2,27,22,17,21,16,8,78,71,62,30.17,30.13,30.10,10,10,10,12,7,18,0.00,6,,249
2013-1-3,32,24,17,27,21,8,83,76,64,30.19,30.11,30.05,10,9,4,16,9,26,0.00,8,Snow,252
2013-1-4,35,30,25,27,24,18,83,74,62,30.19,30.14,30.08,10,10,10,22,15,31,0.00,5,,251
2013-1-5,39,32,25,32,27,22,98,81,54,30.22,30.12,29.96,10,8,2,16,8,22,0.00,5,Rain-Snow,200
2013-1-6,37,34,32,33,29,22,92,79,61,30.28,30.03,29.87,10,9,5,17,12,25,0.00,8,Rain-Snow,283
2013-1-7,37,30,24,26,21,15,90,68,41,30.33,30.23,30.11,10,10,5,16,7,24,0.00,1,,202
2013-1-8,39,32,26,27,25,22,88,73,60,30.19,30.13,30.07,10,9,5,14,7,20,0.00,0,,179
2013-1-9,45,40,32,34,31,27,83,67,53,30.44,30.19,30.00,10,10,10,22,13,30,0.00,1,,251
2013-1-10,43,33,23,35,27,22,96,79,51,30.52,30.36,30.00,10,10,4,18,4,24,0.00,2,Rain,120
2013-1-11,53,45,37,51,45,36,97,91,83,30.00,29.79,29.71,10,8,2,22,12,31,0.00,6,Rain,177
2013-1-12,55,46,37,47,42,32,91,77,62,29.97,29.86,29.74,10,10,5,18,10,28,0.00,2,Rain,227
2013-1-13,36,30,23,34,29,18,97,90,78,30.14,29.95,29.83,10,6,1,16,7,25,0.00,8,Rain-Snow,315
2013-1-14,26,22,19,18,17,15,86,76,66,30.42,30.35,30.15,10,10,7,15,8,22,0.00,7,Snow,286
2013-1-15,31,22,14,19,17,13,93,76,56,30.40,30.32,30.13,10,9,5,8,1,,0.00,4,,169
2013-1-16,36,28,19,29,22,17,90,75,56,30.12,29.94,29.81,10,10,5,22,8,31,0.00,4,Snow,231
2013-1-17,36,30,24,28,18,10,72,60,52,30.34,30.22,29.99,10,10,10,18,11,28,0.00,7,,315
2013-1-18,41,33,25,26,19,12,73,59,49,30.39,30.19,29.91,10,10,10,22,11,41,0.00,4,,221
2013-1-19,46,42,38,37,31,16,78,64,39,29.91,29.80,29.67,10,10,10,28,19,46,0.00,5,,227
2013-1-20,37,28,18,19,10,5,81,64,48,30.23,30.12,29.72,10,8,1,26,17,44,0.00,8,Snow,297
2013-1-21,19,14,9,11,5,0,87,69,57,30.16,30.08,30.02,10,4,0,24,12,32,0.00,8,Snow,290
2013-1-22,14,10,7,9,2,-5,85,71,56,30.29,30.24,30.16,10,3,0,17,12,26,0.00,8,Snow,295
2013-1-23,21,17,13,18,12,3,89,77,51,30.27,30.14,30.05,10,3,0,21,10,31,0.00,8,Snow,282
2013-1-24,17,12,6,12,3,-3,89,65,42,30.61,30.47,30.20,10,10,1,18,7,25,0.00,3,Snow,82
2013-1-25,28,22,15,21,13,1,89,72,55,30.42,30.11,29.96,10,8,2,15,7,24,0.00,8,Snow,180
2013-1-26,27,24,20,21,17,14,87,73,61,30.42,30.28,30.05,10,8,1,15,7,22,0.00,7,Snow,331
2013-1-27,33,26,20,32,21,16,94,79,62,30.41,30.26,29.98,10,8,0,18,5,26,0.00,7,Rain-Snow,143
2013-1-28,47,39,31,47,38,31,100,95,86,29.99,29.91,29.82,10,5,0,20,9,26,0.00,7,Fog-Rain,216
2013-1-29,59,47,35,56,51,35,99,95,88,29.92,29.65,29.41,10,4,0,17,10,30,0.00,8,Fog-Rain,182
2013-1-30,50,38,26,50,38,25,99,95,83,29.44,29.29,29.13,10,4,0,22,6,33,0.00,8,Rain-Snow,286
2013-1-31,21,18,16,16,12,9,93,77,64,29.96,29.83,29.61,7,2,0,22,17,33,0.00,8,Snow,282